Time;durP1;ratioP1;P1;durP2;ratioP2;P2;SDS_P1;SDS_P2;PMS_P1;PMS_P2;Temp;Humidity;BMP_temperature;BMP_pressure;BME280_temperature;BME280_humidity;BME280_pressure;Samples;Min_cycle;Max_cycle;Signal;HPM_P1;HPM_P2
2022/03/24 00:00:41;;;;;;;7.50;1.20;;;24.30;74.00;;;;;;5007612;28;20077;-71
2022/03/24 00:03:09;;;;;;;11.40;2.17;;;24.30;74.50;;;;;;5011421;28;20026;-72
2022/03/24 00:05:36;;;;;;;5.15;1.35;;;24.30;74.10;;;;;;5009661;28;20110;-71
2022/03/24 00:08:03;;;;;;;8.18;1.20;;;24.30;74.10;;;;;;5009602;28;20022;-71
2022/03/24 00:10:30;;;;;;;3.67;1.42;;;24.20;73.90;;;;;;5007342;28;20043;-72
2022/03/24 00:12:57;;;;;;;4.20;1.30;;;24.20;74.00;;;;;;5006759;28;20041;-71
2022/03/24 00:15:23;;;;;;;4.80;2.50;;;24.20;74.00;;;;;;5007972;28;20105;-72
2022/03/24 00:17:50;;;;;;;5.25;1.13;;;24.20;74.00;;;;;;5006422;28;20495;-71
2022/03/24 00:20:17;;;;;;;5.47;1.45;;;24.20;74.00;;;;;;5007413;28;20076;-71
2022/03/24 00:22:44;;;;;;;7.85;1.00;;;24.20;74.00;;;;;;5007937;28;20024;-71
2022/03/24 00:25:11;;;;;;;4.70;1.05;;;24.20;74.10;;;;;;5007251;28;20026;-71
2022/03/24 00:27:39;;;;;;;5.97;1.60;;;24.20;74.10;;;;;;5009042;28;20042;-71
2022/03/24 00:30:08;;;;;;;3.38;1.33;;;24.10;74.20;;;;;;5006859;28;20021;-71
2022/03/24 00:32:35;;;;;;;4.40;1.25;;;24.10;74.20;;;;;;5008176;28;20420;-71
2022/03/24 00:35:02;;;;;;;7.72;1.35;;;24.10;74.30;;;;;;5010287;28;20507;-71
2022/03/24 00:37:29;;;;;;;5.57;2.03;;;24.10;74.30;;;;;;5010617;28;20059;-71
2022/03/24 00:39:55;;;;;;;4.32;1.25;;;24.10;74.40;;;;;;5007167;28;20028;-71
2022/03/24 00:42:22;;;;;;;5.43;1.15;;;24.10;74.50;;;;;;5008873;28;20026;-71
2022/03/24 00:44:49;;;;;;;3.97;1.50;;;24.10;74.60;;;;;;5007999;28;20041;-71
2022/03/24 00:47:16;;;;;;;9.85;1.83;;;24.10;74.70;;;;;;5006572;28;20022;-71
2022/03/24 00:49:43;;;;;;;6.07;1.50;;;24.00;74.80;;;;;;5008651;28;20109;-72
2022/03/24 00:52:10;;;;;;;6.75;1.08;;;24.10;75.00;;;;;;5007002;28;20523;-71
2022/03/24 00:54:38;;;;;;;8.25;1.48;;;24.00;75.00;;;;;;5006592;28;20069;-71
2022/03/24 00:57:06;;;;;;;3.95;1.42;;;24.00;75.10;;;;;;5006058;28;20060;-71
2022/03/24 00:59:34;;;;;;;3.45;1.00;;;24.00;75.20;;;;;;5007534;28;20362;-71
2022/03/24 01:02:00;;;;;;;5.82;1.52;;;24.00;75.20;;;;;;5005579;28;20108;-71
2022/03/24 01:04:28;;;;;;;6.63;1.13;;;23.90;75.10;;;;;;5007807;28;20080;-71
2022/03/24 01:06:54;;;;;;;8.27;1.88;;;23.90;75.20;;;;;;5009560;28;20025;-71
2022/03/24 01:09:21;;;;;;;5.50;1.75;;;23.90;75.20;;;;;;5006369;28;20078;-71
2022/03/24 01:11:47;;;;;;;5.53;1.30;;;23.90;75.10;;;;;;5007127;28;20020;-71
2022/03/24 01:14:16;;;;;;;7.70;2.00;;;23.90;75.20;;;;;;5006934;28;20022;-72
2022/03/24 01:16:43;;;;;;;9.57;2.22;;;23.90;75.10;;;;;;5007097;28;20432;-71
2022/03/24 01:19:10;;;;;;;1.98;1.60;;;23.80;75.00;;;;;;5007858;28;20472;-71
2022/03/24 01:21:38;;;;;;;6.18;1.10;;;23.80;75.10;;;;;;5007865;28;20022;-71
2022/03/24 01:24:05;;;;;;;8.73;1.50;;;23.80;75.10;;;;;;5008813;28;20037;-71
2022/03/24 01:26:31;;;;;;;3.28;1.65;;;23.80;75.10;;;;;;5005267;28;20040;-71
2022/03/24 01:28:59;;;;;;;6.03;1.73;;;23.80;75.00;;;;;;5008301;28;20029;-71
2022/03/24 01:31:26;;;;;;;7.25;1.80;;;23.80;75.10;;;;;;5008329;28;20033;-71
2022/03/24 01:33:52;;;;;;;4.63;1.15;;;23.80;75.20;;;;;;5007618;28;20029;-71
2022/03/24 01:36:19;;;;;;;4.57;2.05;;;23.80;75.20;;;;;;5005502;28;20073;-71
2022/03/24 01:38:46;;;;;;;5.53;1.27;;;23.80;75.20;;;;;;5008581;28;20430;-71
2022/03/24 01:41:12;;;;;;;2.67;1.10;;;23.80;75.30;;;;;;5007502;28;20137;-71
2022/03/24 01:43:42;;;;;;;5.28;1.13;;;23.70;75.30;;;;;;5007252;28;20026;-71
2022/03/24 01:46:08;;;;;;;5.60;1.23;;;23.70;75.40;;;;;;5006362;28;20042;-71
2022/03/24 01:48:35;;;;;;;4.47;1.40;;;23.70;75.40;;;;;;5006211;28;20018;-71
2022/03/24 01:51:01;;;;;;;5.32;1.65;;;23.70;75.50;;;;;;5009439;28;20032;-71
2022/03/24 01:53:28;;;;;;;7.10;1.70;;;23.70;75.50;;;;;;5005775;28;20418;-72
2022/03/24 01:55:55;;;;;;;3.42;1.17;;;23.70;75.50;;;;;;5005534;28;20034;-71
2022/03/24 01:58:23;;;;;;;5.50;1.40;;;23.70;75.50;;;;;;5006644;28;20068;-71
2022/03/24 02:00:51;;;;;;;9.18;1.95;;;23.70;75.60;;;;;;5007058;28;20024;-71
2022/03/24 02:03:21;;;;;;;4.25;1.58;;;23.70;75.60;;;;;;5009039;28;20460;-71
2022/03/24 02:05:48;;;;;;;4.90;1.35;;;23.70;75.70;;;;;;5004569;28;20026;-71
2022/03/24 02:08:14;;;;;;;5.25;1.83;;;23.70;75.70;;;;;;5006920;28;20489;-71
2022/03/24 02:10:41;;;;;;;4.38;1.63;;;23.60;75.70;;;;;;5008012;28;20066;-71
2022/03/24 02:13:09;;;;;;;4.65;1.40;;;23.60;75.80;;;;;;5004240;28;20033;-71
2022/03/24 02:15:35;;;;;;;7.40;2.45;;;23.60;75.80;;;;;;5004748;28;20457;-71
2022/03/24 02:18:02;;;;;;;3.55;1.20;;;23.60;75.80;;;;;;5008125;28;20026;-71
2022/03/24 02:20:33;;;;;;;6.55;1.85;;;23.60;75.80;;;;;;5006977;28;20073;-71
2022/03/24 02:23:01;;;;;;;3.00;1.40;;;23.60;75.80;;;;;;5005539;28;20105;-71
2022/03/24 02:25:31;;;;;;;6.72;2.00;;;23.60;75.80;;;;;;5007272;28;20157;-72
2022/03/24 02:28:01;;;;;;;2.50;1.15;;;23.60;75.70;;;;;;5005332;28;20021;-71
2022/03/24 02:30:29;;;;;;;3.58;0.90;;;23.50;75.70;;;;;;5004982;28;21400;-71
2022/03/24 02:32:56;;;;;;;6.78;1.23;;;23.50;75.70;;;;;;5002869;28;20022;-71
2022/03/24 02:35:23;;;;;;;2.67;1.33;;;23.50;75.60;;;;;;5004522;28;20041;-71
2022/03/24 02:37:49;;;;;;;8.18;1.85;;;23.50;75.50;;;;;;5006358;28;20142;-71
2022/03/24 02:40:16;;;;;;;3.60;1.00;;;23.50;75.60;;;;;;5003943;28;20022;-71
2022/03/24 02:42:43;;;;;;;5.40;1.67;;;23.50;75.70;;;;;;5006720;28;20019;-71
2022/03/24 02:45:10;;;;;;;4.68;1.45;;;23.50;75.60;;;;;;5006870;28;20022;-71
2022/03/24 02:47:37;;;;;;;6.57;1.52;;;23.50;75.60;;;;;;5004651;28;20354;-71
2022/03/24 02:50:04;;;;;;;5.25;1.08;;;23.50;75.60;;;;;;5006354;28;20385;-72
2022/03/24 02:52:30;;;;;;;6.05;2.22;;;23.50;75.60;;;;;;5005841;28;20017;-71
2022/03/24 02:54:57;;;;;;;2.00;0.95;;;23.50;75.60;;;;;;5004841;28;20057;-71
2022/03/24 02:57:24;;;;;;;5.32;0.98;;;23.50;75.60;;;;;;5005198;28;20069;-71
2022/03/24 02:59:50;;;;;;;3.97;1.20;;;23.50;75.70;;;;;;5005448;28;20037;-71
2022/03/24 03:02:18;;;;;;;3.92;1.23;;;23.50;75.70;;;;;;5002531;28;20385;-71
2022/03/24 03:04:49;;;;;;;6.15;1.52;;;23.50;75.80;;;;;;5007468;28;20045;-71
2022/03/24 03:07:16;;;;;;;4.43;1.33;;;23.50;75.90;;;;;;5005564;28;20481;-71
2022/03/24 03:09:43;;;;;;;5.95;1.98;;;23.40;76.00;;;;;;5005582;28;20022;-71
2022/03/24 03:12:11;;;;;;;6.70;1.67;;;23.40;76.10;;;;;;5007358;28;20030;-71
2022/03/24 03:14:38;;;;;;;5.05;1.67;;;23.40;76.10;;;;;;5002731;28;20111;-71
2022/03/24 03:17:05;;;;;;;13.07;2.40;;;23.40;76.10;;;;;;5006924;28;20030;-71
2022/03/24 03:19:32;;;;;;;7.35;1.88;;;23.40;76.20;;;;;;5006644;28;20101;-71
2022/03/24 03:21:58;;;;;;;13.15;1.95;;;23.40;76.20;;;;;;5006572;28;20109;-71
2022/03/24 03:24:26;;;;;;;10.30;1.92;;;23.40;76.20;;;;;;5001054;28;20088;-71
2022/03/24 03:26:53;;;;;;;7.45;1.83;;;23.40;76.30;;;;;;5005393;28;20075;-71
2022/03/24 03:29:22;;;;;;;5.97;1.75;;;23.40;76.20;;;;;;5010508;28;20084;-71
2022/03/24 03:31:50;;;;;;;5.68;1.23;;;23.40;76.30;;;;;;5007928;28;20503;-71
2022/03/24 03:34:17;;;;;;;4.55;1.30;;;23.40;76.30;;;;;;5005893;28;20080;-71
2022/03/24 03:37:23;;;;;;;5.40;1.20;;;23.40;76.30;;;;;;5006341;28;20035;-71
2022/03/24 03:40:10;;;;;;;;;;;23.40;76.30;;;;;;5009668;28;20018;-71
2022/03/24 03:43:16;;;;;;;3.88;1.30;;;23.40;76.30;;;;;;5007550;28;19956;-71
2022/03/24 03:46:22;;;;;;;9.43;1.70;;;23.30;76.30;;;;;;5007393;28;20080;-71
2022/03/24 03:49:28;;;;;;;12.23;2.35;;;23.30;76.30;;;;;;5008809;28;20392;-72
2022/03/24 03:52:34;;;;;;;12.32;1.90;;;23.30;76.30;;;;;;5008250;28;20022;-69
2022/03/24 03:55:40;;;;;;;10.13;2.08;;;23.30;76.30;;;;;;5007008;28;20399;-71
2022/03/24 03:58:47;;;;;;;8.73;2.30;;;23.30;76.40;;;;;;5010331;28;20112;-71
2022/03/24 04:01:55;;;;;;;11.35;2.78;;;23.30;76.30;;;;;;5009596;28;20107;-71
2022/03/24 04:05:01;;;;;;;25.05;8.45;;;23.20;77.10;;;;;;5006670;28;20037;-70
2022/03/24 04:08:09;;;;;;;18.13;9.77;;;23.10;77.50;;;;;;5010084;28;20044;-71
2022/03/24 04:11:15;;;;;;;13.60;7.60;;;23.20;77.70;;;;;;5007709;28;20109;-70
2022/03/24 04:14:21;;;;;;;7.38;3.67;;;23.10;77.60;;;;;;5008691;28;20026;-71
2022/03/24 04:17:08;;;;;;;;;;;23.10;77.50;;;;;;5008213;28;20048;-71
2022/03/24 04:20:18;;;;;;;10.10;2.40;;;23.10;77.50;;;;;;5006590;28;19921;-70
2022/03/24 04:23:24;;;;;;;11.50;5.03;;;23.20;77.40;;;;;;5006554;28;20065;-71
2022/03/24 04:26:11;;;;;;;;;;;23.20;77.30;;;;;;5010332;28;20030;-71
2022/03/24 04:29:17;;;;;;;11.93;4.90;;;23.10;77.20;;;;;;5007313;28;19932;-74
2022/03/24 04:32:23;;;;;;;9.18;2.45;;;23.20;77.10;;;;;;5007436;28;20018;-71
2022/03/24 04:35:29;;;;;;;7.22;2.08;;;23.20;77.00;;;;;;5008166;28;20061;-71
2022/03/24 04:38:35;;;;;;;3.53;2.13;;;23.20;76.90;;;;;;5007392;28;20553;-73
2022/03/24 04:41:42;;;;;;;8.90;4.00;;;23.10;76.80;;;;;;5007207;28;20030;-72
2022/03/24 04:44:08;;;;;;;;;;;23.10;76.90;;;;;;5007369;28;20030;-70
2022/03/24 04:46:35;;;;;;;11.23;7.00;;;23.10;76.80;;;;;;5006845;28;20424;-70
2022/03/24 04:49:02;;;;;;;16.20;6.55;;;23.10;76.80;;;;;;5023233;28;20037;-70
2022/03/24 04:51:28;;;;;;;16.25;5.47;;;23.10;76.80;;;;;;5007664;28;20389;-70
2022/03/24 04:53:55;;;;;;;8.70;3.13;;;23.10;76.80;;;;;;5008754;28;20826;-71
2022/03/24 04:56:21;;;;;;;8.63;2.20;;;23.10;76.80;;;;;;5006417;28;20124;-71
2022/03/24 04:58:48;;;;;;;3.92;1.50;;;23.10;76.70;;;;;;5005266;28;20011;-72
2022/03/24 05:01:16;;;;;;;5.05;1.45;;;23.10;76.70;;;;;;5008033;28;20034;-71
2022/03/24 05:03:46;;;;;;;6.40;1.65;;;23.10;76.70;;;;;;5005084;28;20022;-71
2022/03/24 05:06:14;;;;;;;7.07;1.83;;;23.10;76.70;;;;;;5010960;28;20021;-71
2022/03/24 05:08:40;;;;;;;3.80;1.27;;;23.10;76.60;;;;;;5006431;28;20034;-71
2022/03/24 05:11:07;;;;;;;6.55;1.77;;;23.10;76.70;;;;;;5007288;28;20083;-71
2022/03/24 05:13:33;;;;;;;10.30;1.90;;;23.10;76.50;;;;;;5005872;28;20572;-71
2022/03/24 05:16:00;;;;;;;9.25;3.28;;;23.10;76.40;;;;;;5009712;28;20048;-71
2022/03/24 05:18:26;;;;;;;14.80;2.05;;;23.10;76.30;;;;;;5007122;28;20072;-72
2022/03/24 05:20:53;;;;;;;10.63;2.63;;;23.10;76.10;;;;;;5008196;28;20026;-71
2022/03/24 05:23:19;;;;;;;7.97;2.28;;;23.00;76.00;;;;;;5010409;28;20099;-71
2022/03/24 05:25:49;;;;;;;8.57;2.00;;;23.00;75.80;;;;;;5005692;28;20035;-71
2022/03/24 05:28:16;;;;;;;10.55;2.75;;;23.10;75.80;;;;;;5004785;28;20021;-72
2022/03/24 05:30:43;;;;;;;8.25;2.10;;;23.10;76.30;;;;;;5008588;28;20029;-71
2022/03/24 05:33:10;;;;;;;7.90;1.73;;;23.10;75.40;;;;;;5004755;28;20091;-71
2022/03/24 05:35:37;;;;;;;5.88;1.35;;;23.10;75.30;;;;;;5008768;28;20026;-71
2022/03/24 05:38:04;;;;;;;10.98;2.25;;;23.10;75.30;;;;;;5007215;28;20025;-72
2022/03/24 05:40:31;;;;;;;9.38;1.80;;;23.10;75.50;;;;;;5006639;28;20116;-72
2022/03/24 05:42:58;;;;;;;5.05;1.58;;;23.10;75.40;;;;;;5006129;28;20161;-72
2022/03/24 05:45:25;;;;;;;9.68;1.98;;;23.10;75.40;;;;;;5008567;28;20021;-71
2022/03/24 05:47:51;;;;;;;9.23;2.20;;;23.10;75.20;;;;;;5007588;28;20018;-72
2022/03/24 05:50:18;;;;;;;8.52;2.25;;;23.10;75.10;;;;;;5007327;28;20029;-71
2022/03/24 05:52:49;;;;;;;9.85;1.90;;;23.10;74.90;;;;;;5007577;28;20100;-72
2022/03/24 05:55:17;;;;;;;10.80;1.60;;;23.10;74.80;;;;;;5004171;28;20138;-72
2022/03/24 05:57:44;;;;;;;11.10;2.58;;;23.10;75.00;;;;;;5009391;28;20453;-71
2022/03/24 06:00:11;;;;;;;5.07;1.95;;;23.10;74.70;;;;;;5008794;28;20022;-71
2022/03/24 06:02:38;;;;;;;8.18;2.47;;;23.10;74.60;;;;;;5007637;28;20026;-71
2022/03/24 06:05:08;;;;;;;9.93;2.63;;;23.10;74.50;;;;;;5005363;28;20040;-71
2022/03/24 06:07:36;;;;;;;8.23;2.08;;;23.10;74.50;;;;;;5006152;28;20038;-71
2022/03/24 06:10:03;;;;;;;10.20;2.88;;;23.10;74.40;;;;;;5007960;28;20137;-71
2022/03/24 06:12:31;;;;;;;4.78;1.73;;;23.10;74.30;;;;;;5004341;28;20061;-71
2022/03/24 06:14:58;;;;;;;8.65;2.03;;;23.10;74.10;;;;;;5008189;28;20483;-71
2022/03/24 06:17:25;;;;;;;6.43;1.92;;;23.10;74.00;;;;;;5003982;28;20557;-71
2022/03/24 06:19:53;;;;;;;4.78;1.80;;;23.10;73.70;;;;;;5007332;28;20030;-72
2022/03/24 06:22:20;;;;;;;10.57;2.25;;;23.10;73.40;;;;;;5007823;28;20944;-71
2022/03/24 06:24:46;;;;;;;11.82;2.03;;;23.10;73.10;;;;;;5007688;28;20033;-71
2022/03/24 06:27:13;;;;;;;9.57;1.85;;;23.10;72.90;;;;;;5004255;28;20018;-71
2022/03/24 06:29:39;;;;;;;5.85;1.38;;;23.10;72.60;;;;;;5007220;28;20018;-71
2022/03/24 06:32:06;;;;;;;4.53;1.63;;;23.20;72.50;;;;;;5007189;28;20384;-72
2022/03/24 06:34:33;;;;;;;8.60;2.25;;;23.20;72.30;;;;;;5003543;28;20018;-71
2022/03/24 06:36:59;;;;;;;6.80;1.67;;;23.20;72.10;;;;;;5005803;28;20712;-71
2022/03/24 06:39:25;;;;;;;6.80;2.53;;;23.20;71.90;;;;;;5005776;28;20025;-71
2022/03/24 06:41:52;;;;;;;4.57;1.92;;;23.20;71.60;;;;;;5006282;28;20544;-71
2022/03/24 06:44:19;;;;;;;6.47;1.83;;;23.30;71.40;;;;;;5004195;28;20022;-71
2022/03/24 06:46:45;;;;;;;4.90;1.73;;;23.30;71.10;;;;;;5006236;28;20022;-72
2022/03/24 06:49:12;;;;;;;11.43;2.65;;;23.30;70.70;;;;;;5004632;28;20018;-72
2022/03/24 06:51:38;;;;;;;7.50;2.05;;;23.30;70.30;;;;;;5006700;28;20385;-72
2022/03/24 06:54:05;;;;;;;8.93;2.53;;;23.30;70.00;;;;;;5007645;28;20042;-71
2022/03/24 06:56:31;;;;;;;9.98;1.75;;;23.40;69.80;;;;;;5005699;28;20026;-71
2022/03/24 06:58:58;;;;;;;8.32;1.35;;;23.40;69.40;;;;;;5005647;28;20034;-72
2022/03/24 07:01:25;;;;;;;6.10;1.50;;;23.40;69.30;;;;;;5002270;28;20019;-71
2022/03/24 07:03:51;;;;;;;12.73;1.80;;;23.40;69.00;;;;;;5005582;28;20033;-71
2022/03/24 07:06:18;;;;;;;4.53;1.70;;;23.50;69.50;;;;;;5006098;28;20018;-71
2022/03/24 07:08:44;;;;;;;7.35;1.50;;;23.50;68.70;;;;;;5003797;28;20058;-71
2022/03/24 07:11:11;;;;;;;9.40;2.03;;;23.50;68.50;;;;;;5007304;28;20026;-71
2022/03/24 07:14:17;;;;;;;9.00;2.67;;;23.50;68.20;;;;;;5003183;28;20033;-71
2022/03/24 07:17:23;;;;;;;12.18;2.40;;;23.50;67.60;;;;;;5005438;28;20042;-70
2022/03/24 07:20:09;;;;;;;;;;;23.60;67.20;;;;;;5008573;28;21332;-71
2022/03/24 07:23:15;;;;;;;16.73;1.88;;;23.60;67.10;;;;;;5005663;28;19905;-70
2022/03/24 07:26:21;;;;;;;10.38;2.28;;;23.60;66.80;;;;;;5004657;28;20393;-71
2022/03/24 07:29:27;;;;;;;6.50;2.60;;;23.60;66.70;;;;;;5005454;28;20408;-71
2022/03/24 07:31:54;;;;;;;4.75;1.40;;;23.70;67.50;;;;;;5008018;28;20060;-70
2022/03/24 07:34:21;;;;;;;7.03;1.27;;;23.70;66.70;;;;;;5005521;28;20041;-70
2022/03/24 07:36:48;;;;;;;8.43;1.48;;;23.70;66.50;;;;;;5005218;28;20072;-70
2022/03/24 07:39:15;;;;;;;7.53;1.88;;;23.80;66.40;;;;;;5006599;28;20057;-70
2022/03/24 07:41:41;;;;;;;20.48;2.45;;;23.80;66.20;;;;;;5004396;28;20031;-70
2022/03/24 07:44:08;;;;;;;17.80;2.53;;;23.80;66.20;;;;;;5005823;28;20029;-70
2022/03/24 07:46:35;;;;;;;19.83;2.22;;;23.80;66.20;;;;;;5006060;28;20026;-70
2022/03/24 07:49:02;;;;;;;5.68;1.50;;;23.90;66.30;;;;;;5004855;28;20092;-70
2022/03/24 07:51:32;;;;;;;3.92;1.55;;;23.90;65.90;;;;;;5000673;28;20026;-70
2022/03/24 07:54:02;;;;;;;4.35;1.20;;;23.90;65.70;;;;;;5004103;28;20426;-71
2022/03/24 07:56:30;;;;;;;9.60;1.73;;;24.00;65.60;;;;;;5004288;28;20030;-70
2022/03/24 07:58:58;;;;;;;5.07;2.78;;;24.00;65.50;;;;;;5005428;28;20473;-70
2022/03/24 08:01:32;;;;;;;9.35;1.27;;;24.00;65.30;;;;;;5006434;28;20034;-70
2022/03/24 08:04:01;;;;;;;7.97;1.83;;;24.00;65.10;;;;;;5004252;28;20059;-70
2022/03/24 08:06:28;;;;;;;36.42;4.28;;;24.00;64.90;;;;;;5005733;28;20026;-71
2022/03/24 08:08:55;;;;;;;29.92;2.85;;;24.10;64.70;;;;;;5004980;28;20069;-70
2022/03/24 08:11:22;;;;;;;24.17;3.90;;;24.10;64.80;;;;;;5008290;28;20026;-71
2022/03/24 08:13:53;;;;;;;13.63;2.17;;;24.10;65.00;;;;;;5004616;28;20031;-70
2022/03/24 08:16:21;;;;;;;13.57;3.10;;;24.20;64.90;;;;;;5009906;28;20436;-71
2022/03/24 08:18:48;;;;;;;12.90;1.98;;;24.20;65.20;;;;;;5010874;28;20487;-70
2022/03/24 08:21:14;;;;;;;24.50;2.58;;;24.30;65.40;;;;;;5007649;28;20504;-70
2022/03/24 08:23:41;;;;;;;13.43;2.17;;;24.30;65.50;;;;;;5007358;28;20034;-70
2022/03/24 08:26:07;;;;;;;11.38;1.70;;;24.30;65.40;;;;;;5008870;28;20096;-70
2022/03/24 08:28:34;;;;;;;12.05;1.90;;;24.40;65.30;;;;;;5007793;28;20029;-70
2022/03/24 08:31:00;;;;;;;14.50;1.83;;;24.50;65.00;;;;;;5008127;28;20025;-70
2022/03/24 08:33:27;;;;;;;6.88;2.83;;;24.50;65.10;;;;;;5008336;28;20121;-70
2022/03/24 08:35:54;;;;;;;4.68;1.20;;;24.60;65.00;;;;;;5009705;28;20034;-70
2022/03/24 08:38:21;;;;;;;6.72;1.80;;;24.60;64.60;;;;;;5004491;28;20033;-72
2022/03/24 08:40:47;;;;;;;5.50;1.20;;;24.60;64.30;;;;;;5007119;28;20109;-72
2022/03/24 08:43:14;;;;;;;8.73;1.75;;;24.70;64.00;;;;;;5008623;28;20025;-72
2022/03/24 08:45:40;;;;;;;2.85;1.23;;;24.70;63.60;;;;;;5003588;28;20162;-72
2022/03/24 08:48:07;;;;;;;4.97;2.15;;;24.70;63.60;;;;;;5009305;28;20473;-70
2022/03/24 08:50:35;;;;;;;5.30;1.75;;;24.70;63.30;;;;;;5008380;28;20026;-70
2022/03/24 08:53:03;;;;;;;9.43;1.65;;;24.80;63.60;;;;;;5010346;28;20021;-73
2022/03/24 08:55:30;;;;;;;7.25;1.45;;;24.90;63.70;;;;;;5005250;28;20506;-72
2022/03/24 08:57:57;;;;;;;5.47;1.83;;;24.90;63.40;;;;;;5010531;28;20045;-72
2022/03/24 09:00:23;;;;;;;10.35;1.55;;;25.00;63.10;;;;;;5005413;28;20108;-72
2022/03/24 09:02:53;;;;;;;5.45;1.38;;;25.00;62.90;;;;;;5008044;28;20054;-72
2022/03/24 09:05:20;;;;;;;6.22;1.17;;;25.10;62.20;;;;;;5005826;28;20148;-72
2022/03/24 09:07:47;;;;;;;6.40;1.20;;;25.10;61.50;;;;;;5008332;28;20548;-70
2022/03/24 09:10:15;;;;;;;6.78;1.40;;;25.10;61.20;;;;;;5005199;28;20053;-72
2022/03/24 09:12:46;;;;;;;5.72;1.23;;;25.10;60.90;;;;;;5006749;28;20056;-70
2022/03/24 09:15:18;;;;;;;9.38;1.42;;;25.20;60.90;;;;;;5006186;28;20033;-72
2022/03/24 09:17:46;;;;;;;3.80;1.13;;;25.20;60.70;;;;;;5005081;28;20034;-72
2022/03/24 09:20:15;;;;;;;3.22;1.20;;;25.20;60.70;;;;;;5008826;28;20591;-72
2022/03/24 09:22:43;;;;;;;2.65;1.00;;;25.30;59.90;;;;;;5006304;28;20049;-72
2022/03/24 09:25:11;;;;;;;2.15;0.85;;;25.30;59.80;;;;;;5006464;28;20038;-72
2022/03/24 09:27:38;;;;;;;10.07;1.38;;;25.30;59.70;;;;;;5007326;28;20022;-71
2022/03/24 09:30:07;;;;;;;1.83;0.90;;;25.40;59.60;;;;;;5006725;28;20093;-71
2022/03/24 09:32:37;;;;;;;4.00;1.40;;;25.40;59.30;;;;;;5007500;28;20018;-72
2022/03/24 09:35:05;;;;;;;3.30;1.20;;;25.50;58.90;;;;;;5007093;28;20013;-72
2022/03/24 09:37:33;;;;;;;7.38;1.15;;;25.50;57.50;;;;;;5008225;28;20026;-71
2022/03/24 09:40:00;;;;;;;3.47;0.82;;;25.50;57.70;;;;;;5005174;28;20017;-72
2022/03/24 09:42:29;;;;;;;7.95;1.10;;;25.60;57.30;;;;;;5005980;28;20029;-71
2022/03/24 09:45:03;;;;;;;2.65;1.38;;;25.60;57.40;;;;;;5007732;28;20038;-72
2022/03/24 09:47:30;;;;;;;18.25;1.27;;;25.60;56.80;;;;;;5003101;28;20393;-72
2022/03/24 09:49:57;;;;;;;6.90;1.10;;;25.70;56.70;;;;;;5004624;28;20017;-72
2022/03/24 09:52:25;;;;;;;4.90;1.20;;;25.80;56.30;;;;;;5008676;28;20026;-72
2022/03/24 09:54:52;;;;;;;9.40;1.67;;;25.80;55.90;;;;;;5005046;28;20535;-72
2022/03/24 09:57:20;;;;;;;4.97;1.48;;;25.80;55.60;;;;;;5007856;28;20073;-72
2022/03/24 09:59:46;;;;;;;9.55;1.23;;;25.90;55.50;;;;;;5006941;28;20025;-72
2022/03/24 10:02:13;;;;;;;2.60;0.70;;;26.00;55.20;;;;;;5006566;28;20014;-72
2022/03/24 10:04:46;;;;;;;7.60;1.35;;;26.00;55.10;;;;;;5003676;28;20030;-72
2022/03/24 10:07:12;;;;;;;5.50;0.85;;;26.00;54.90;;;;;;5007518;28;20037;-72
2022/03/24 10:09:44;;;;;;;6.15;1.13;;;26.00;54.70;;;;;;5004705;28;20018;-72
2022/03/24 10:12:37;;;;;;;3.20;0.85;;;26.10;54.60;;;;;;5006543;28;20029;-72
2022/03/24 10:15:14;;;;;;;7.75;1.20;;;26.20;54.60;;;;;;5005945;28;20021;-72
2022/03/24 10:17:49;;;;;;;13.35;2.35;;;26.20;54.60;;;;;;5004771;28;20031;-71
2022/03/24 10:20:15;;;;;;;8.13;1.08;;;26.20;54.90;;;;;;5006739;28;20022;-72
2022/03/24 10:22:58;;;;;;;11.43;1.55;;;26.30;54.70;;;;;;5007792;28;20112;-72
2022/03/24 10:25:33;;;;;;;5.22;1.15;;;26.40;55.10;;;;;;5005674;28;20088;-71
2022/03/24 10:28:04;;;;;;;5.13;1.10;;;26.40;54.80;;;;;;5005857;28;20112;-72
2022/03/24 10:30:52;;;;;;;11.10;1.65;;;26.50;54.60;;;;;;5005015;28;20492;-71
2022/03/24 10:33:33;;;;;;;3.47;1.33;;;26.60;54.50;;;;;;5006641;28;20594;-72
2022/03/24 10:36:07;;;;;;;5.05;1.25;;;26.60;54.40;;;;;;5005206;28;20061;-72
2022/03/24 10:38:35;;;;;;;9.75;1.35;;;26.60;54.50;;;;;;5005026;28;20058;-72
2022/03/24 10:41:26;;;;;;;9.15;1.20;;;26.70;54.50;;;;;;5005924;28;20018;-72
2022/03/24 10:43:55;;;;;;;7.95;1.58;;;26.70;54.90;;;;;;5003589;28;20072;-72
2022/03/24 10:46:30;;;;;;;12.90;1.55;;;26.70;55.30;;;;;;5007211;28;20029;-72
2022/03/24 10:48:56;;;;;;;8.90;2.03;;;26.70;54.80;;;;;;5004391;28;20539;-72
2022/03/24 10:51:28;;;;;;;5.03;1.08;;;26.80;54.40;;;;;;5006964;28;20079;-71
2022/03/24 10:54:10;;;;;;;2.55;0.77;;;26.80;54.30;;;;;;5004711;28;20038;-72
2022/03/24 10:56:43;;;;;;;3.42;1.05;;;26.80;54.00;;;;;;5005722;28;20117;-72
2022/03/24 10:59:13;;;;;;;4.75;1.05;;;26.80;54.00;;;;;;5005648;28;20049;-72
2022/03/24 11:01:39;;;;;;;8.77;1.08;;;26.80;53.80;;;;;;5006406;28;20026;-72
2022/03/24 11:04:06;;;;;;;2.35;1.02;;;26.80;53.90;;;;;;5007132;28;20021;-72
2022/03/24 11:06:32;;;;;;;4.82;1.90;;;26.80;54.10;;;;;;5004347;28;20018;-72
2022/03/24 11:09:00;;;;;;;5.95;1.17;;;26.80;54.00;;;;;;5003716;28;20473;-72
2022/03/24 11:11:28;;;;;;;3.15;0.98;;;26.80;54.10;;;;;;5006251;28;20018;-72
2022/03/24 11:14:04;;;;;;;5.70;0.90;;;26.80;54.40;;;;;;5005591;28;20018;-72
2022/03/24 11:16:33;;;;;;;6.40;1.35;;;26.90;54.40;;;;;;5003999;28;20096;-72
2022/03/24 11:19:01;;;;;;;3.97;0.85;;;26.90;54.00;;;;;;5006595;28;20077;-73
2022/03/24 11:21:41;;;;;;;6.18;1.08;;;26.90;54.00;;;;;;5007112;28;20122;-72
2022/03/24 11:24:08;;;;;;;6.13;1.58;;;27.00;54.60;;;;;;5006654;28;20032;-72
2022/03/24 11:26:35;;;;;;;10.43;1.58;;;27.10;55.00;;;;;;5004975;28;20416;-71
2022/03/24 11:29:03;;;;;;;18.55;2.70;;;27.10;54.90;;;;;;5005436;28;20461;-72
2022/03/24 11:31:33;;;;;;;9.48;1.20;;;27.20;54.50;;;;;;5003183;28;20022;-72
2022/03/24 11:34:03;;;;;;;5.15;1.10;;;27.20;54.40;;;;;;5003985;28;20021;-71
2022/03/24 11:36:30;;;;;;;6.05;1.00;;;27.20;54.00;;;;;;5003355;28;20042;-72
2022/03/24 11:38:59;;;;;;;9.65;1.70;;;27.20;53.70;;;;;;5007205;28;20428;-72
2022/03/24 11:41:37;;;;;;;12.10;1.20;;;27.30;53.80;;;;;;5004347;28;20551;-72
2022/03/24 11:44:12;;;;;;;6.82;1.65;;;27.30;53.90;;;;;;5004469;28;20026;-71
2022/03/24 11:46:38;;;;;;;5.13;1.00;;;27.20;53.90;;;;;;5004524;28;20048;-72
2022/03/24 11:49:16;;;;;;;3.08;1.00;;;27.30;54.20;;;;;;5003896;28;20022;-71
2022/03/24 11:51:44;;;;;;;5.90;1.38;;;27.30;54.50;;;;;;5008740;28;20088;-72
2022/03/24 11:54:12;;;;;;;7.85;1.38;;;27.20;54.40;;;;;;5008417;28;20033;-71
2022/03/24 11:56:38;;;;;;;7.75;1.25;;;27.20;54.60;;;;;;5008335;28;20058;-72
2022/03/24 11:59:08;;;;;;;17.48;2.45;;;27.30;54.60;;;;;;5012065;28;20049;-72
2022/03/24 12:01:37;;;;;;;19.00;2.15;;;27.40;55.30;;;;;;5008738;28;20041;-72
2022/03/24 12:04:14;;;;;;;6.10;1.77;;;27.40;54.70;;;;;;5010423;28;20366;-72
2022/03/24 12:06:48;;;;;;;6.53;1.00;;;27.50;54.80;;;;;;5007747;28;20374;-72
2022/03/24 12:09:17;;;;;;;3.85;0.85;;;27.50;54.70;;;;;;5007646;28;20014;-72
2022/03/24 12:11:53;;;;;;;4.20;1.13;;;27.50;54.80;;;;;;5008428;28;20440;-72
2022/03/24 12:14:38;;;;;;;13.23;2.08;;;27.60;54.90;;;;;;5007828;28;20097;-72
2022/03/24 12:17:16;;;;;;;14.93;2.03;;;27.60;55.10;;;;;;5008368;28;20515;-72
2022/03/24 12:19:53;;;;;;;3.35;1.30;;;27.70;55.00;;;;;;5009077;28;20370;-72
2022/03/24 12:22:42;;;;;;;4.53;0.95;;;27.70;54.80;;;;;;5006478;28;20026;-72
2022/03/24 12:25:11;;;;;;;4.63;1.08;;;27.70;55.00;;;;;;5007927;28;20029;-72
2022/03/24 12:28:19;;;;;;;6.15;1.20;;;27.70;55.00;;;;;;5006554;28;20448;-72
2022/03/24 12:31:00;;;;;;;1.75;0.90;;;27.80;55.10;;;;;;5006443;28;20041;-72
2022/03/24 12:33:36;;;;;;;2.15;1.20;;;27.90;54.90;;;;;;5009534;28;20375;-72
2022/03/24 12:36:04;;;;;;;4.78;1.10;;;27.90;54.80;;;;;;5010020;28;20037;-72
2022/03/24 12:38:34;;;;;;;1.55;0.77;;;27.90;54.80;;;;;;5010222;28;20026;-72
2022/03/24 12:41:06;;;;;;;3.58;0.80;;;27.90;54.40;;;;;;5008223;28;20480;-72
2022/03/24 12:43:49;;;;;;;6.53;1.15;;;27.90;54.50;;;;;;5022292;28;20111;-72
2022/03/24 12:46:21;;;;;;;4.57;1.27;;;27.90;54.40;;;;;;5008853;28;20021;-72
2022/03/24 12:48:49;;;;;;;3.92;1.20;;;27.90;54.00;;;;;;5005705;28;20105;-72
2022/03/24 12:51:22;;;;;;;5.00;0.88;;;27.90;53.50;;;;;;5008434;28;20033;-72
2022/03/24 12:53:54;;;;;;;4.28;0.82;;;27.90;53.30;;;;;;5006147;28;20038;-72
2022/03/24 12:56:23;;;;;;;2.47;0.63;;;27.80;53.30;;;;;;5007117;28;20520;-72
2022/03/24 12:58:54;;;;;;;4.65;0.95;;;27.70;53.40;;;;;;5008693;28;20018;-72
2022/03/24 13:01:21;;;;;;;5.78;1.00;;;27.60;53.80;;;;;;5006836;28;20033;-72
2022/03/24 13:03:54;;;;;;;1.88;0.70;;;27.50;54.10;;;;;;5009945;28;20497;-72
2022/03/24 13:06:22;;;;;;;3.00;0.90;;;27.50;54.50;;;;;;5007584;28;20400;-72
2022/03/24 13:09:16;;;;;;;3.55;0.98;;;27.40;54.90;;;;;;5006633;28;20010;-72